createdAt,value
2023-03-06T00:01:10.836Z,65.10
2023-03-06T00:03:41.219Z,65.10
2023-03-06T00:06:11.616Z,65.20
2023-03-06T00:08:41.931Z,65.10
2023-03-06T00:11:16.429Z,65.20
2023-03-06T00:13:46.622Z,65.10
2023-03-06T00:16:16.880Z,65.10
2023-03-06T00:18:49.343Z,65.10
2023-03-06T00:21:19.607Z,65.10
2023-03-06T00:23:49.790Z,65.30
2023-03-06T00:26:20.042Z,65.40
2023-03-06T00:28:50.247Z,65.60
2023-03-06T00:31:20.465Z,65.80
2023-03-06T00:33:51.176Z,66.00
2023-03-06T00:36:21.364Z,66.00
2023-03-06T00:38:51.535Z,65.90
2023-03-06T00:41:22.306Z,65.90
2023-03-06T00:43:52.528Z,65.80
2023-03-06T00:46:22.802Z,65.80
2023-03-06T00:48:53.097Z,65.70
2023-03-06T00:51:23.405Z,65.70
2023-03-06T00:53:53.702Z,65.80
2023-03-06T00:56:24.004Z,65.80
2023-03-06T00:58:54.236Z,65.70
2023-03-06T01:01:24.865Z,65.80
2023-03-06T01:03:55.097Z,65.80
2023-03-06T01:06:25.653Z,65.80
2023-03-06T01:08:55.916Z,65.70
2023-03-06T01:11:26.259Z,65.60
2023-03-06T01:13:56.596Z,65.70
2023-03-06T01:16:27.467Z,65.90
2023-03-06T01:18:58.042Z,65.80
2023-03-06T01:21:28.948Z,65.80
2023-03-06T01:23:59.215Z,65.80
2023-03-06T01:26:29.562Z,65.90
2023-03-06T01:28:59.996Z,65.90
2023-03-06T01:31:30.641Z,65.80
2023-03-06T01:34:00.912Z,65.70
2023-03-06T01:36:31.132Z,65.70
2023-03-06T01:39:01.429Z,65.60
2023-03-06T01:41:32.338Z,65.60
2023-03-06T01:44:02.782Z,65.60
2023-03-06T01:46:46.371Z,65.50
2023-03-06T01:49:32.730Z,65.50
2023-03-06T01:52:11.884Z,65.50
2023-03-06T01:54:59.018Z,65.50
2023-03-06T01:57:40.145Z,65.50
2023-03-06T02:00:20.669Z,65.50
2023-03-06T02:02:57.634Z,65.50
2023-03-06T02:05:27.950Z,65.50
2023-03-06T02:07:59.733Z,65.50
2023-03-06T02:10:30.005Z,65.40
2023-03-06T02:13:00.715Z,65.40
2023-03-06T02:15:32.270Z,65.40
2023-03-06T02:18:03.591Z,65.50
2023-03-06T02:20:42.239Z,65.80
2023-03-06T02:23:36.594Z,65.90
2023-03-06T02:26:07.329Z,66.00
2023-03-06T02:28:37.539Z,66.20
2023-03-06T02:31:08.293Z,66.10
2023-03-06T02:33:38.531Z,66.10
2023-03-06T02:36:12.930Z,66.10
2023-03-06T02:38:53.639Z,66.10
2023-03-06T02:41:23.838Z,66.10
2023-03-06T02:43:55.782Z,66.00
2023-03-06T02:46:26.109Z,66.10
2023-03-06T02:48:56.545Z,66.10
2023-03-06T02:51:27.062Z,66.10
2023-03-06T02:53:57.611Z,66.00
2023-03-06T02:56:27.895Z,65.90
2023-03-06T02:58:58.204Z,65.80
2023-03-06T03:01:29.406Z,65.70
2023-03-06T03:03:59.779Z,65.60
2023-03-06T03:06:30.113Z,65.50
2023-03-06T03:09:00.450Z,65.40
2023-03-06T03:11:30.775Z,65.40
2023-03-06T03:14:01.156Z,65.40
2023-03-06T03:16:31.412Z,65.60
2023-03-06T03:19:01.819Z,65.60
2023-03-06T03:21:32.072Z,65.90
2023-03-06T03:24:02.590Z,66.30
2023-03-06T03:26:32.999Z,65.50
2023-03-06T03:29:03.535Z,65.60
2023-03-06T03:31:34.646Z,65.70
2023-03-06T03:34:05.220Z,65.70
2023-03-06T03:36:35.448Z,65.90
2023-03-06T03:39:06.066Z,66.00
2023-03-06T03:41:36.774Z,66.00
2023-03-06T03:44:07.077Z,66.10
2023-03-06T03:46:37.332Z,66.10
2023-03-06T03:49:08.331Z,66.20
2023-03-06T03:51:38.620Z,66.10
2023-03-06T03:54:08.987Z,66.20
2023-03-06T03:56:39.283Z,66.20
2023-03-06T03:59:10.471Z,66.30
2023-03-06T04:01:41.071Z,66.30
2023-03-06T04:04:11.448Z,66.50
2023-03-06T04:06:41.707Z,66.60
2023-03-06T04:09:11.988Z,66.60
2023-03-06T04:11:44.816Z,66.70
2023-03-06T04:14:15.055Z,66.80
2023-03-06T04:16:45.229Z,66.70
2023-03-06T04:19:15.507Z,66.70
2023-03-06T04:21:45.723Z,66.50
2023-03-06T04:24:16.105Z,66.40
2023-03-06T04:26:46.457Z,66.30
2023-03-06T04:29:17.035Z,66.20
2023-03-06T04:31:47.237Z,66.10
2023-03-06T04:34:17.671Z,66.10
2023-03-06T04:36:47.866Z,66.10
2023-03-06T04:39:18.173Z,66.10
2023-03-06T04:41:48.446Z,66.10
2023-03-06T04:44:18.750Z,66.10
2023-03-06T04:46:48.976Z,66.00
2023-03-06T04:49:19.217Z,65.90
2023-03-06T04:51:49.418Z,65.80
2023-03-06T04:54:19.651Z,65.90
2023-03-06T04:56:49.900Z,65.80
2023-03-06T04:59:20.163Z,65.80
2023-03-06T05:01:50.544Z,65.80
2023-03-06T05:04:20.756Z,65.90
2023-03-06T05:06:51.033Z,65.80
2023-03-06T05:09:21.311Z,65.70
2023-03-06T05:11:51.509Z,65.70
2023-03-06T05:14:21.755Z,65.60
2023-03-06T05:16:51.996Z,65.50
2023-03-06T05:19:22.201Z,65.20
2023-03-06T05:21:52.434Z,64.90
2023-03-06T05:24:22.657Z,64.80
2023-03-06T05:26:52.887Z,64.60
2023-03-06T05:29:23.377Z,64.50
2023-03-06T05:31:53.646Z,64.30
2023-03-06T05:34:24.979Z,64.50
2023-03-06T05:36:55.196Z,64.50
2023-03-06T05:39:25.432Z,64.50
2023-03-06T05:41:55.662Z,64.50
2023-03-06T05:44:31.409Z,64.50
2023-03-06T05:47:01.813Z,64.60
2023-03-06T05:49:37.088Z,64.70
2023-03-06T05:52:08.507Z,64.80
2023-03-06T05:54:39.909Z,64.80
2023-03-06T05:57:10.248Z,64.80
2023-03-06T05:59:40.529Z,64.80
2023-03-06T06:02:10.849Z,64.90
2023-03-06T06:04:41.188Z,64.90
2023-03-06T06:07:14.769Z,65.00
2023-03-06T06:09:47.230Z,65.00
2023-03-06T06:12:17.808Z,64.90
2023-03-06T06:14:48.035Z,64.80
2023-03-06T06:17:18.376Z,65.00
2023-03-06T06:19:48.771Z,65.10
2023-03-06T06:22:18.997Z,65.10
2023-03-06T06:24:49.217Z,65.00
2023-03-06T06:27:19.440Z,65.00
2023-03-06T06:29:52.130Z,64.80
2023-03-06T06:32:22.588Z,64.70
2023-03-06T06:34:52.935Z,64.40
2023-03-06T06:37:23.215Z,64.40
2023-03-06T06:39:53.773Z,64.40
2023-03-06T06:42:33.182Z,64.50
2023-03-06T06:45:06.779Z,64.40
2023-03-06T06:47:39.896Z,64.40
2023-03-06T06:50:14.317Z,64.40
2023-03-06T06:52:44.572Z,64.20
2023-03-06T06:55:15.349Z,63.90
2023-03-06T06:57:46.074Z,63.80
2023-03-06T07:00:17.688Z,63.70
2023-03-06T07:02:50.785Z,63.70
2023-03-06T07:05:22.212Z,63.70
2023-03-06T07:07:53.139Z,63.40
2023-03-06T07:10:23.782Z,63.50
2023-03-06T07:12:54.036Z,63.40
2023-03-06T07:15:24.604Z,63.30
2023-03-06T07:17:55.298Z,63.20
2023-03-06T07:20:25.906Z,63.20
2023-03-06T07:22:56.120Z,63.10
2023-03-06T07:25:26.370Z,63.00
2023-03-06T07:27:57.443Z,62.80
2023-03-06T07:30:28.296Z,62.70
2023-03-06T07:33:01.696Z,62.60
2023-03-06T07:35:32.370Z,62.50
2023-03-06T07:38:03.212Z,62.40
2023-03-06T07:40:33.924Z,62.30
2023-03-06T07:43:18.267Z,62.20
2023-03-06T07:45:49.751Z,62.10
2023-03-06T07:48:20.042Z,62.00
2023-03-06T07:51:07.907Z,62.00
2023-03-06T07:53:39.428Z,61.70
2023-03-06T07:56:11.258Z,61.90
2023-03-06T07:58:44.799Z,61.90
2023-03-06T08:01:19.349Z,61.90
2023-03-06T08:03:51.927Z,61.80
2023-03-06T08:06:27.964Z,61.90
2023-03-06T08:08:58.774Z,61.70
2023-03-06T08:11:31.995Z,61.70
2023-03-06T08:14:05.661Z,61.70
2023-03-06T08:16:36.208Z,61.50
2023-03-06T08:19:08.078Z,61.40
2023-03-06T08:21:39.850Z,61.30
2023-03-06T08:24:11.166Z,61.30
2023-03-06T08:26:42.594Z,61.30
2023-03-06T08:29:15.061Z,61.20
2023-03-06T08:31:51.023Z,61.20
2023-03-06T08:34:26.724Z,61.10
2023-03-06T08:36:57.843Z,61.20
2023-03-06T08:39:29.262Z,61.20
2023-03-06T08:41:59.813Z,61.20
2023-03-06T08:44:31.314Z,61.20
2023-03-06T08:47:02.122Z,61.20
2023-03-06T08:49:32.619Z,61.20
2023-03-06T08:52:03.082Z,61.20
2023-03-06T08:54:33.486Z,61.20
2023-03-06T08:57:04.044Z,61.10
2023-03-06T08:59:34.392Z,61.20
2023-03-06T09:02:05.915Z,61.20
2023-03-06T09:04:36.392Z,61.10
2023-03-06T09:07:06.859Z,61.30
2023-03-06T09:09:37.860Z,61.30
2023-03-06T09:12:08.693Z,62.10
2023-03-06T09:14:39.216Z,61.30
2023-03-06T09:17:09.736Z,61.20
2023-03-06T09:19:40.264Z,61.30
2023-03-06T09:22:10.686Z,61.30
2023-03-06T09:24:42.032Z,61.40
2023-03-06T09:27:12.557Z,61.30
2023-03-06T09:29:42.763Z,61.40
2023-03-06T09:32:13.413Z,61.40
2023-03-06T09:34:43.754Z,61.50
2023-03-06T09:37:15.295Z,61.50
2023-03-06T09:39:46.932Z,61.50
2023-03-06T09:42:25.402Z,61.60
2023-03-06T09:45:02.263Z,61.60
2023-03-06T09:48:01.698Z,61.60
2023-03-06T09:50:41.974Z,61.50
2023-03-06T09:53:30.198Z,61.70
2023-03-06T09:56:05.529Z,61.50
2023-03-06T09:58:44.212Z,61.70
2023-03-06T10:01:38.189Z,61.70
2023-03-06T10:04:35.722Z,61.50
2023-03-06T10:07:26.022Z,61.60
2023-03-06T10:10:08.276Z,61.70
2023-03-06T10:12:43.308Z,61.80
2023-03-06T10:15:26.550Z,61.80
2023-03-06T10:17:58.142Z,61.80
2023-03-06T10:20:31.704Z,61.80
2023-03-06T10:23:24.324Z,61.80
2023-03-06T10:26:03.678Z,61.70
2023-03-06T10:28:54.263Z,62.00
2023-03-06T10:31:30.086Z,62.00
2023-03-06T10:34:33.133Z,62.00
2023-03-06T10:37:15.093Z,61.90
2023-03-06T10:39:45.366Z,62.00
2023-03-06T10:42:15.896Z,62.00
2023-03-06T10:44:46.662Z,62.00
2023-03-06T10:47:36.994Z,62.00
2023-03-06T10:50:24.237Z,61.90
2023-03-06T10:53:07.255Z,61.90
2023-03-06T10:55:40.014Z,61.80
2023-03-06T10:58:39.365Z,61.90
2023-03-06T11:01:24.300Z,61.90
2023-03-06T11:03:55.751Z,61.80
2023-03-06T11:06:37.338Z,62.00
2023-03-06T11:09:23.095Z,61.90
2023-03-06T11:11:53.809Z,61.90
2023-03-06T11:14:27.436Z,61.90
2023-03-06T11:16:57.709Z,61.90
2023-03-06T11:19:30.516Z,62.00
2023-03-06T11:22:08.937Z,61.90
2023-03-06T11:24:43.884Z,61.90
2023-03-06T11:27:36.411Z,61.90
2023-03-06T11:30:21.066Z,61.80
2023-03-06T11:32:59.363Z,61.90
2023-03-06T11:35:47.171Z,62.00
2023-03-06T11:38:37.886Z,61.90
2023-03-06T11:41:24.743Z,61.90
2023-03-06T11:44:35.789Z,62.00
2023-03-06T11:47:36.535Z,61.90
2023-03-06T11:50:31.102Z,61.90
2023-03-06T11:53:07.436Z,62.70
2023-03-06T11:56:01.689Z,62.10
2023-03-06T11:58:49.953Z,62.00
2023-03-06T12:01:52.179Z,62.10
2023-03-06T12:04:38.004Z,62.10
2023-03-06T12:07:22.888Z,62.20
2023-03-06T12:09:55.864Z,62.10
2023-03-06T12:12:35.026Z,62.10
2023-03-06T12:15:32.328Z,62.10
2023-03-06T12:18:05.305Z,62.00
2023-03-06T12:20:46.780Z,62.20
2023-03-06T12:23:28.646Z,62.10
2023-03-06T12:26:08.510Z,62.10
2023-03-06T12:29:15.048Z,62.20
2023-03-06T12:31:45.378Z,62.10
2023-03-06T12:34:36.510Z,62.20
2023-03-06T12:37:30.821Z,62.10
2023-03-06T12:40:04.024Z,62.20
2023-03-06T12:43:01.599Z,62.30
2023-03-06T12:45:41.294Z,62.10
2023-03-06T12:48:27.846Z,62.20
2023-03-06T12:50:58.690Z,62.20
2023-03-06T12:53:34.604Z,62.20
2023-03-06T12:56:06.169Z,62.20
2023-03-06T12:58:56.617Z,62.20
2023-03-06T13:01:47.278Z,62.10
2023-03-06T13:04:53.705Z,62.10
2023-03-06T13:07:53.867Z,62.10
2023-03-06T13:10:36.056Z,62.20
2023-03-06T13:13:25.539Z,62.20
2023-03-06T13:16:10.715Z,62.30
2023-03-06T13:18:40.925Z,62.20
2023-03-06T13:21:44.582Z,62.20
2023-03-06T13:24:38.816Z,62.10
2023-03-06T13:27:12.250Z,62.30
2023-03-06T13:29:42.454Z,62.20
2023-03-06T13:32:15.552Z,62.30
2023-03-06T13:34:51.609Z,62.20
2023-03-06T13:37:22.742Z,62.20
2023-03-06T13:40:12.911Z,62.30
2023-03-06T13:42:46.251Z,62.10
2023-03-06T13:45:48.109Z,62.20
2023-03-06T13:48:44.406Z,62.10
2023-03-06T13:51:27.473Z,62.30
2023-03-06T13:54:22.106Z,62.30
2023-03-06T13:57:03.325Z,62.20
2023-03-06T13:59:57.031Z,62.30
2023-03-06T14:02:57.672Z,62.20
2023-03-06T14:05:35.818Z,62.30
2023-03-06T14:11:04.377Z,62.30
2023-03-06T14:13:56.053Z,62.30
2023-03-06T14:16:29.172Z,62.20
2023-03-06T14:19:03.912Z,62.20
2023-03-06T14:21:41.820Z,62.30
2023-03-06T14:24:40.366Z,62.20
2023-03-06T14:27:18.753Z,62.10
2023-03-06T14:29:50.351Z,62.30
2023-03-06T14:32:24.266Z,62.30
2023-03-06T14:34:54.854Z,63.00
2023-03-06T14:37:27.102Z,62.30
2023-03-06T14:39:57.961Z,62.30
2023-03-06T14:42:30.678Z,62.30
2023-03-06T14:45:17.633Z,62.30
2023-03-06T14:47:55.243Z,62.20
2023-03-06T14:50:32.464Z,62.20
2023-03-06T14:53:06.870Z,62.20
2023-03-06T14:55:38.871Z,62.30
2023-03-06T14:58:18.285Z,62.20
2023-03-06T15:00:53.203Z,62.20
2023-03-06T15:03:36.299Z,62.10
2023-03-06T15:06:07.618Z,62.10
2023-03-06T15:08:41.240Z,62.20
2023-03-06T15:11:11.590Z,62.20
2023-03-06T15:13:42.456Z,62.20
2023-03-06T15:16:15.426Z,62.10
2023-03-06T15:19:22.323Z,62.10
2023-03-06T15:21:54.462Z,62.00
2023-03-06T15:24:39.202Z,62.20
2023-03-06T15:27:18.595Z,62.10
2023-03-06T15:29:49.164Z,62.10
2023-03-06T15:32:28.718Z,62.10
2023-03-06T15:35:29.283Z,62.00
2023-03-06T15:38:00.435Z,62.00
2023-03-06T15:40:33.448Z,62.10
2023-03-06T15:43:04.469Z,62.10
2023-03-06T15:45:37.303Z,62.10
2023-03-06T15:48:16.826Z,62.10
2023-03-06T15:50:47.492Z,62.00
2023-03-06T15:53:17.912Z,62.10
2023-03-06T15:55:48.746Z,62.10
2023-03-06T15:58:26.460Z,62.00
2023-03-06T16:00:57.008Z,62.00
2023-03-06T16:03:27.329Z,62.10
2023-03-06T16:05:58.097Z,62.00
2023-03-06T16:08:31.788Z,62.10
2023-03-06T16:11:02.430Z,62.00
2023-03-06T16:13:33.045Z,62.00
2023-03-06T16:16:03.683Z,62.00
2023-03-06T16:18:33.968Z,62.10
2023-03-06T16:21:04.374Z,62.10
2023-03-06T16:23:34.846Z,62.00
2023-03-06T16:26:05.053Z,62.00
2023-03-06T16:28:36.100Z,61.90
2023-03-06T16:31:06.404Z,62.10
2023-03-06T16:33:36.579Z,62.70
2023-03-06T16:36:21.937Z,62.00
2023-03-06T16:38:52.973Z,61.90
2023-03-06T16:41:23.581Z,62.00
2023-03-06T16:43:53.929Z,62.00
2023-03-06T16:46:26.291Z,62.00
2023-03-06T16:48:56.568Z,62.00
2023-03-06T16:51:26.887Z,62.10
2023-03-06T16:53:57.366Z,62.00
2023-03-06T16:56:27.677Z,62.10
2023-03-06T16:58:57.925Z,62.00
2023-03-06T17:01:28.208Z,62.00
2023-03-06T17:03:58.631Z,62.00
2023-03-06T17:06:28.833Z,62.00
2023-03-06T17:09:02.372Z,62.00
2023-03-06T17:11:32.806Z,62.00
2023-03-06T17:14:04.488Z,62.00
2023-03-06T17:16:34.813Z,62.00
2023-03-06T17:19:05.336Z,62.00
2023-03-06T17:21:37.073Z,61.90
2023-03-06T17:24:08.190Z,61.90
2023-03-06T17:26:40.488Z,62.00
2023-03-06T17:29:11.318Z,61.90
2023-03-06T17:31:41.586Z,62.20
2023-03-06T17:34:11.848Z,62.00
2023-03-06T17:36:42.029Z,62.00
2023-03-06T17:39:13.350Z,62.00
2023-03-06T17:41:45.912Z,62.10
2023-03-06T17:44:21.426Z,62.00
2023-03-06T17:46:51.726Z,62.00
2023-03-06T17:49:24.828Z,62.00
2023-03-06T17:51:58.114Z,62.00
2023-03-06T17:54:31.609Z,62.00
2023-03-06T17:57:05.149Z,62.00
2023-03-06T17:59:36.415Z,62.00
2023-03-06T18:02:07.918Z,62.00
2023-03-06T18:04:38.225Z,62.00
2023-03-06T18:07:08.585Z,62.00
2023-03-06T18:09:39.732Z,61.90
2023-03-06T18:12:10.151Z,62.00
2023-03-06T18:14:40.756Z,62.00
2023-03-06T18:17:11.035Z,62.00
2023-03-06T18:19:41.285Z,62.70
2023-03-06T18:22:11.665Z,61.90
2023-03-06T18:24:42.032Z,62.00
2023-03-06T18:27:12.271Z,62.00
2023-03-06T18:29:42.713Z,62.00
2023-03-06T18:32:13.768Z,62.00
2023-03-06T18:34:44.055Z,62.00
2023-03-06T18:37:14.292Z,61.90
2023-03-06T18:39:44.664Z,61.90
2023-03-06T18:42:14.933Z,61.90
2023-03-06T18:44:49.325Z,61.90
2023-03-06T18:47:20.174Z,61.90
2023-03-06T18:49:50.865Z,62.00
2023-03-06T18:52:21.239Z,61.90
2023-03-06T18:54:52.151Z,62.00
2023-03-06T18:57:22.425Z,61.90
2023-03-06T18:59:52.906Z,61.90
2023-03-06T19:02:23.114Z,61.90
2023-03-06T19:04:54.630Z,61.90
2023-03-06T19:07:24.818Z,62.00
2023-03-06T19:09:55.161Z,62.00
2023-03-06T19:12:25.424Z,61.90
2023-03-06T19:14:55.608Z,61.90
2023-03-06T19:17:25.829Z,61.90
2023-03-06T19:19:57.071Z,61.90
2023-03-06T19:22:27.332Z,61.90
2023-03-06T19:24:57.577Z,61.90
2023-03-06T19:27:27.902Z,61.90
2023-03-06T19:29:58.279Z,61.90
2023-03-06T19:32:29.278Z,61.80
2023-03-06T19:35:00.992Z,61.90
2023-03-06T19:37:31.435Z,61.80
2023-03-06T19:40:04.242Z,61.80
2023-03-06T19:42:35.105Z,61.80
2023-03-06T19:45:05.833Z,61.90
2023-03-06T19:47:36.680Z,61.90
2023-03-06T19:50:07.202Z,61.90
2023-03-06T19:52:40.675Z,61.90
2023-03-06T19:55:11.503Z,61.90
2023-03-06T19:57:42.006Z,61.90
2023-03-06T20:00:13.772Z,62.00
2023-03-06T20:02:44.071Z,62.00
2023-03-06T20:05:14.542Z,62.10
2023-03-06T20:07:45.067Z,62.10
2023-03-06T20:10:15.547Z,62.10
2023-03-06T20:12:46.026Z,62.10
2023-03-06T20:15:16.445Z,62.10
2023-03-06T20:17:46.680Z,62.00
2023-03-06T20:20:17.092Z,62.10
2023-03-06T20:22:47.341Z,62.10
2023-03-06T20:25:17.612Z,62.80
2023-03-06T20:27:47.809Z,62.10
2023-03-06T20:30:18.796Z,62.10
2023-03-06T20:32:49.145Z,62.10
2023-03-06T20:35:19.675Z,62.10
2023-03-06T20:37:49.934Z,62.00
2023-03-06T20:40:20.356Z,62.00
2023-03-06T20:42:50.679Z,62.00
2023-03-06T20:45:20.900Z,62.00
2023-03-06T20:47:51.152Z,62.00
2023-03-06T20:50:21.458Z,62.00
2023-03-06T20:52:55.087Z,62.00
2023-03-06T20:55:25.553Z,62.00
2023-03-06T20:57:55.905Z,62.00
2023-03-06T21:00:26.320Z,62.00
2023-03-06T21:02:56.563Z,61.90
2023-03-06T21:05:26.803Z,61.90
2023-03-06T21:07:57.111Z,62.00
2023-03-06T21:10:27.303Z,62.00
2023-03-06T21:12:57.540Z,62.00
2023-03-06T21:15:31.594Z,62.00
2023-03-06T21:18:02.865Z,62.00
2023-03-06T21:20:33.188Z,62.00
2023-03-06T21:23:03.654Z,62.00
2023-03-06T21:25:34.448Z,62.00
2023-03-06T21:28:04.847Z,62.10
2023-03-06T21:30:36.451Z,62.10
2023-03-06T21:33:06.711Z,62.10
2023-03-06T21:35:40.360Z,62.10
2023-03-06T21:38:11.197Z,62.10
2023-03-06T21:40:42.448Z,62.10
2023-03-06T21:43:13.054Z,62.10
2023-03-06T21:45:47.873Z,62.20
2023-03-06T21:48:19.557Z,62.20
2023-03-06T21:50:50.073Z,62.20
2023-03-06T21:53:20.316Z,62.20
2023-03-06T21:55:50.621Z,62.30
2023-03-06T21:58:20.841Z,62.20
2023-03-06T22:00:51.083Z,62.20
2023-03-06T22:03:21.533Z,62.30
2023-03-06T22:05:53.624Z,62.30
2023-03-06T22:08:29.959Z,62.20
2023-03-06T22:11:00.280Z,63.00
2023-03-06T22:13:30.742Z,62.30
2023-03-06T22:16:01.050Z,62.30
2023-03-06T22:18:31.346Z,62.30
2023-03-06T22:21:01.914Z,62.30
2023-03-06T22:23:32.179Z,62.40
2023-03-06T22:26:16.039Z,62.30
2023-03-06T22:28:46.677Z,62.30
2023-03-06T22:31:27.791Z,62.40
2023-03-06T22:33:59.702Z,62.20
2023-03-06T22:36:34.524Z,62.20
2023-03-06T22:39:06.182Z,61.70
2023-03-06T22:41:36.524Z,61.70
2023-03-06T22:44:07.615Z,61.80
2023-03-06T22:46:37.922Z,61.90
2023-03-06T22:49:08.616Z,62.60
2023-03-06T22:51:39.363Z,61.80
2023-03-06T22:54:10.543Z,61.80
2023-03-06T22:56:40.940Z,61.80
2023-03-06T22:59:11.427Z,61.80
2023-03-06T23:01:41.835Z,62.60
2023-03-06T23:04:13.307Z,61.80
2023-03-06T23:06:44.911Z,61.80
2023-03-06T23:09:25.586Z,61.80
2023-03-06T23:11:55.809Z,61.70
2023-03-06T23:14:26.160Z,61.80
2023-03-06T23:16:56.485Z,61.70
2023-03-06T23:19:27.438Z,61.70
2023-03-06T23:21:57.814Z,61.70
2023-03-06T23:24:28.347Z,61.70
2023-03-06T23:26:58.673Z,61.70
2023-03-06T23:29:28.950Z,61.70
2023-03-06T23:31:59.297Z,61.70
2023-03-06T23:34:29.612Z,61.90
2023-03-06T23:36:59.890Z,61.80
2023-03-06T23:39:30.167Z,61.80
2023-03-06T23:42:00.444Z,61.70
2023-03-06T23:44:30.822Z,61.70
2023-03-06T23:47:01.130Z,61.70
2023-03-06T23:49:31.394Z,61.70
2023-03-06T23:52:01.654Z,61.60
2023-03-06T23:54:32.087Z,61.70
2023-03-06T23:57:02.683Z,61.70
2023-03-06T23:59:33.497Z,61.70
